Time;durP1;ratioP1;P1;durP2;ratioP2;P2;SDS_P1;SDS_P2;PMS_P1;PMS_P2;Temp;Humidity;BMP_temperature;BMP_pressure;BME280_temperature;BME280_humidity;BME280_pressure;Samples;Min_cycle;Max_cycle;Signal;HPM_P1;HPM_P2
2024/02/07 00:01:18;;;;;;;5.40;1.00;;;5.90;99.90;;;;;;5034556;28;20207;-54
2024/02/07 00:03:45;;;;;;;5.93;1.13;;;5.90;99.90;;;;;;5027937;28;20304;-54
2024/02/07 00:06:12;;;;;;;9.60;1.60;;;5.90;99.90;;;;;;5037052;28;20598;-54
2024/02/07 00:08:39;;;;;;;8.70;1.60;;;6.00;99.90;;;;;;4988578;28;20305;-54
2024/02/07 00:11:07;;;;;;;7.67;1.30;;;6.00;99.90;;;;;;5036584;28;20265;-54
2024/02/07 00:13:35;;;;;;;10.10;1.47;;;5.90;99.90;;;;;;5026156;28;20223;-50
2024/02/07 00:16:02;;;;;;;6.50;1.33;;;6.00;99.90;;;;;;5034237;28;20203;-54
2024/02/07 00:18:29;;;;;;;12.90;1.87;;;6.00;99.90;;;;;;5026286;28;20219;-55
2024/02/07 00:20:56;;;;;;;8.17;0.93;;;5.90;99.90;;;;;;5036441;28;20204;-54
2024/02/07 00:23:23;;;;;;;7.77;1.10;;;5.90;99.90;;;;;;5008701;28;20243;-54
2024/02/07 00:25:49;;;;;;;8.77;1.03;;;6.00;99.90;;;;;;5041687;28;20268;-53
2024/02/07 00:28:16;;;;;;;7.57;0.97;;;5.90;99.90;;;;;;5030603;28;20289;-55
2024/02/07 00:30:44;;;;;;;5.17;1.07;;;5.90;99.90;;;;;;5023916;28;20243;-52
2024/02/07 00:33:11;;;;;;;9.30;1.47;;;5.90;99.90;;;;;;5036062;28;20699;-55
2024/02/07 00:35:38;;;;;;;9.07;1.70;;;6.00;99.90;;;;;;5026927;28;20201;-52
2024/02/07 00:38:05;;;;;;;9.13;1.43;;;5.90;99.90;;;;;;5008175;28;20204;-61
2024/02/07 00:40:33;;;;;;;5.93;1.23;;;6.00;99.90;;;;;;5030992;28;20200;-53
2024/02/07 00:42:59;;;;;;;9.40;2.13;;;6.00;99.90;;;;;;5037881;28;20224;-54
2024/02/07 00:45:28;;;;;;;6.47;1.60;;;6.00;99.90;;;;;;5019558;28;20199;-54
2024/02/07 00:47:57;;;;;;;7.67;2.03;;;6.00;99.90;;;;;;5035872;28;20226;-54
2024/02/07 00:50:23;;;;;;;10.27;1.57;;;6.00;99.90;;;;;;5023756;28;20226;-53
2024/02/07 00:52:50;;;;;;;10.07;1.70;;;6.00;99.90;;;;;;5038110;28;20227;-54
2024/02/07 00:55:17;;;;;;;13.37;1.83;;;6.00;99.90;;;;;;5016696;28;20749;-51
2024/02/07 00:57:44;;;;;;;9.03;1.50;;;6.00;99.90;;;;;;5036996;28;20195;-52
2024/02/07 01:00:14;;;;;;;9.33;2.00;;;6.00;99.90;;;;;;5028999;28;20221;-53
2024/02/07 01:02:41;;;;;;;7.23;1.73;;;6.00;99.90;;;;;;5036690;28;20254;-55
2024/02/07 01:05:10;;;;;;;9.90;1.50;;;6.00;99.90;;;;;;5019376;28;20200;-54
2024/02/07 01:07:37;;;;;;;10.03;1.60;;;6.10;99.90;;;;;;5030486;28;20276;-54
2024/02/07 01:10:04;;;;;;;10.60;2.47;;;6.10;99.90;;;;;;5004218;28;21134;-56
2024/02/07 01:12:31;;;;;;;11.77;1.57;;;6.10;99.90;;;;;;5024225;28;20227;-54
2024/02/07 01:14:58;;;;;;;12.00;1.87;;;6.10;99.90;;;;;;5020495;28;21187;-56
2024/02/07 01:17:25;;;;;;;9.87;1.50;;;6.10;99.90;;;;;;5032996;28;20195;-52
2024/02/07 01:19:52;;;;;;;14.23;1.83;;;6.10;99.90;;;;;;5024752;28;20741;-55
2024/02/07 01:22:20;;;;;;;11.80;1.60;;;6.20;99.90;;;;;;5031781;28;20278;-55
2024/02/07 01:24:47;;;;;;;8.60;2.00;;;6.20;99.90;;;;;;5008399;28;20207;-55
2024/02/07 01:27:14;;;;;;;10.17;1.60;;;6.20;99.90;;;;;;5036897;28;20208;-56
2024/02/07 01:29:41;;;;;;;10.33;1.77;;;6.20;99.90;;;;;;5030970;28;20206;-54
2024/02/07 01:32:08;;;;;;;6.43;1.50;;;6.20;99.90;;;;;;5027212;28;21036;-56
2024/02/07 01:34:35;;;;;;;4.43;1.73;;;6.20;99.90;;;;;;5029551;28;20256;-53
2024/02/07 01:37:02;;;;;;;11.23;2.57;;;6.20;99.90;;;;;;4966950;28;20642;-53
2024/02/07 01:39:34;;;;;;;12.33;2.47;;;6.20;99.90;;;;;;5032394;28;20192;-56
2024/02/07 01:42:01;;;;;;;10.67;1.27;;;6.20;99.90;;;;;;5012336;28;20196;-52
2024/02/07 01:44:29;;;;;;;9.93;1.97;;;6.20;99.90;;;;;;5034302;28;20222;-53
2024/02/07 01:49:53;;;;;;;10.37;1.80;;;6.20;99.90;;;;;;5064584;27;20604;-55
2024/02/07 01:52:22;;;;;;;8.80;1.87;;;6.20;99.90;;;;;;5069692;28;20198;-51
2024/02/07 01:54:50;;;;;;;12.33;2.13;;;6.20;99.90;;;;;;5045836;28;20199;-53
2024/02/07 01:57:17;;;;;;;10.57;2.13;;;6.20;99.90;;;;;;5018594;28;20247;-56
2024/02/07 01:59:44;;;;;;;10.30;1.80;;;6.20;99.90;;;;;;5047771;28;20411;-54
2024/02/07 02:02:11;;;;;;;10.97;2.07;;;6.20;99.90;;;;;;5055112;28;20982;-52
2024/02/07 02:04:38;;;;;;;15.77;1.80;;;6.20;99.90;;;;;;5039609;28;20200;-53
2024/02/07 02:07:06;;;;;;;14.80;2.57;;;6.20;99.90;;;;;;5044955;28;20281;-52
2024/02/07 02:09:34;;;;;;;13.70;2.20;;;6.20;99.90;;;;;;5056002;28;20248;-56
2024/02/07 02:12:01;;;;;;;14.77;2.13;;;6.10;99.90;;;;;;5019051;28;20276;-54
2024/02/07 02:14:29;;;;;;;14.03;2.10;;;6.20;99.90;;;;;;5053189;28;20222;-53
2024/02/07 02:16:59;;;;;;;14.17;1.87;;;6.20;99.90;;;;;;5049736;28;20260;-54
2024/02/07 02:19:26;;;;;;;12.17;2.63;;;6.20;99.90;;;;;;5041074;28;20256;-52
2024/02/07 02:22:24;;;;;;;11.33;2.77;;;6.20;99.90;;;;;;5034552;28;20202;-55
2024/02/07 02:25:12;;;;;;;10.20;2.10;;;6.20;99.90;;;;;;5053209;28;20899;-53
2024/02/07 02:27:50;;;;;;;13.70;2.20;;;6.20;99.90;;;;;;5027628;28;20223;-54
2024/02/07 02:30:33;;;;;;;9.87;2.40;;;6.20;99.90;;;;;;5051238;28;20183;-53
2024/02/07 02:33:03;;;;;;;13.60;2.13;;;6.20;99.90;;;;;;5054600;28;20222;-55
2024/02/07 02:35:31;;;;;;;11.03;2.00;;;6.20;99.90;;;;;;5048387;28;20278;-53
2024/02/07 02:37:58;;;;;;;11.47;2.47;;;6.20;99.90;;;;;;5049265;28;20670;-55
2024/02/07 02:40:25;;;;;;;11.83;2.30;;;6.20;99.90;;;;;;5053816;28;20199;-52
2024/02/07 02:42:51;;;;;;;12.93;2.23;;;6.20;99.90;;;;;;5032960;28;20223;-55
2024/02/07 02:45:20;;;;;;;11.00;2.47;;;6.20;99.90;;;;;;5053123;28;20198;-53
2024/02/07 02:47:47;;;;;;;9.17;1.93;;;6.20;99.90;;;;;;5056758;28;20835;-52
2024/02/07 02:50:15;;;;;;;15.67;2.33;;;6.20;99.90;;;;;;5044318;28;20201;-55
2024/02/07 02:52:42;;;;;;;12.67;2.27;;;6.20;99.90;;;;;;5046823;28;20234;-54
2024/02/07 02:55:11;;;;;;;15.47;2.23;;;6.20;99.90;;;;;;5047610;28;20260;-52
2024/02/07 02:57:39;;;;;;;13.57;2.10;;;6.20;99.90;;;;;;5019657;28;20272;-55
2024/02/07 03:00:09;;;;;;;16.97;2.20;;;6.20;99.90;;;;;;5042931;28;20199;-54
2024/02/07 03:02:40;;;;;;;18.77;2.53;;;6.20;99.90;;;;;;5032233;28;20227;-52
2024/02/07 03:05:26;;;;;;;15.30;3.00;;;6.10;99.90;;;;;;5028494;28;20199;-54
2024/02/07 03:08:04;;;;;;;17.10;3.13;;;6.20;99.90;;;;;;5035536;28;20211;-49
2024/02/07 03:10:31;;;;;;;14.40;2.60;;;6.20;99.90;;;;;;5039155;28;20199;-55
2024/02/07 03:12:58;;;;;;;15.47;2.97;;;6.10;99.90;;;;;;5016563;28;20292;-54
2024/02/07 03:15:25;;;;;;;13.00;2.63;;;6.20;99.90;;;;;;5029245;28;20204;-54
2024/02/07 03:17:53;;;;;;;11.43;2.33;;;6.20;99.90;;;;;;5042557;28;20203;-54
2024/02/07 03:20:20;;;;;;;13.47;2.60;;;6.10;99.90;;;;;;5037322;28;20195;-51
2024/02/07 03:22:48;;;;;;;13.63;2.20;;;6.10;99.90;;;;;;5028888;28;20628;-51
2024/02/07 03:25:16;;;;;;;12.93;2.37;;;6.10;99.90;;;;;;5020182;28;20204;-53
2024/02/07 03:27:44;;;;;;;10.03;1.80;;;6.10;99.90;;;;;;5016688;28;20298;-52
2024/02/07 03:30:11;;;;;;;15.03;2.70;;;6.10;99.90;;;;;;5031237;28;20250;-53
2024/02/07 03:32:38;;;;;;;13.07;2.87;;;6.10;99.90;;;;;;5034065;28;20211;-54
2024/02/07 03:35:07;;;;;;;11.50;2.40;;;6.10;99.90;;;;;;5040576;28;20610;-54
2024/02/07 03:37:33;;;;;;;10.50;2.93;;;6.00;99.90;;;;;;5031045;28;20211;-52
2024/02/07 03:40:00;;;;;;;17.90;2.83;;;6.00;99.90;;;;;;5028002;28;20195;-56
2024/02/07 03:42:27;;;;;;;18.77;2.60;;;5.90;99.90;;;;;;5040433;28;21035;-51
2024/02/07 03:44:58;;;;;;;14.07;2.30;;;5.90;99.90;;;;;;5009789;28;20215;-55
2024/02/07 03:47:25;;;;;;;11.87;2.60;;;5.90;99.90;;;;;;5038402;28;20187;-56
2024/02/07 03:49:53;;;;;;;11.23;2.47;;;5.90;99.90;;;;;;5043575;28;20214;-53
2024/02/07 03:52:21;;;;;;;9.23;2.50;;;5.90;99.90;;;;;;5028550;28;20203;-54
2024/02/07 03:54:50;;;;;;;11.40;2.23;;;5.90;99.90;;;;;;5027571;28;20226;-55
2024/02/07 03:57:19;;;;;;;21.40;3.37;;;5.90;99.90;;;;;;5035408;28;20184;-53
2024/02/07 03:59:46;;;;;;;13.10;2.33;;;5.90;99.90;;;;;;5016734;28;20211;-53
2024/02/07 04:02:21;;;;;;;16.23;2.60;;;5.90;99.90;;;;;;5026925;28;20273;-55
2024/02/07 04:04:49;;;;;;;7.00;2.03;;;5.80;99.90;;;;;;5039759;28;20207;-55
2024/02/07 04:07:16;;;;;;;10.37;2.00;;;5.80;99.90;;;;;;5037078;28;20880;-55
2024/02/07 04:09:45;;;;;;;15.53;2.23;;;5.80;99.90;;;;;;5031875;28;20222;-54
2024/02/07 05:17:14;;;;;;;8.07;1.47;;;5.00;99.90;;;;;;5011227;28;20204;-54
2024/02/07 05:19:41;;;;;;;10.37;1.80;;;5.00;99.90;;;;;;5026324;28;20200;-54
2024/02/07 05:22:08;;;;;;;11.73;2.37;;;5.00;99.90;;;;;;5028863;28;20842;-54
2024/02/07 05:24:37;;;;;;;11.23;2.67;;;5.00;99.90;;;;;;5035605;28;20205;-54
2024/02/07 05:27:06;;;;;;;17.57;2.17;;;5.00;99.90;;;;;;5018201;28;20196;-55
2024/02/07 05:29:33;;;;;;;12.97;2.40;;;5.00;99.90;;;;;;5024695;28;20218;-54
2024/02/07 05:32:01;;;;;;;12.63;1.93;;;5.00;99.90;;;;;;4999254;28;20273;-55
2024/02/07 05:34:28;;;;;;;12.27;2.70;;;5.00;99.90;;;;;;5036757;28;20225;-54
2024/02/07 05:36:55;;;;;;;15.80;2.40;;;5.00;99.90;;;;;;5030231;28;20727;-55
2024/02/07 05:39:23;;;;;;;13.30;2.13;;;5.00;99.90;;;;;;5035812;28;20187;-54
2024/02/07 05:41:50;;;;;;;11.00;2.33;;;4.90;99.90;;;;;;5034604;28;20203;-55
2024/02/07 05:44:17;;;;;;;6.80;1.87;;;4.90;99.90;;;;;;5020170;28;20296;-50
2024/02/07 05:46:43;;;;;;;16.17;2.80;;;4.90;99.90;;;;;;5015598;28;20223;-53
2024/02/07 05:49:14;;;;;;;11.63;1.93;;;4.90;99.90;;;;;;4997209;28;20989;-53
2024/02/07 05:51:41;;;;;;;15.10;2.33;;;4.90;99.90;;;;;;5037771;28;20262;-52
2024/02/07 05:54:08;;;;;;;14.60;1.97;;;4.90;99.90;;;;;;5027749;28;20223;-50
2024/02/07 05:56:35;;;;;;;9.73;2.10;;;4.90;99.90;;;;;;5033669;28;20207;-54
2024/02/07 05:59:02;;;;;;;26.30;3.57;;;4.80;99.90;;;;;;5015691;28;20199;-53
2024/02/07 06:01:29;;;;;;;10.63;2.57;;;4.80;99.90;;;;;;5037962;28;20196;-53
2024/02/07 06:03:56;;;;;;;14.60;2.30;;;4.80;99.90;;;;;;5006078;28;20230;-54
2024/02/07 06:06:29;;;;;;;11.90;1.87;;;4.80;99.90;;;;;;5024090;28;20211;-54
2024/02/07 06:08:58;;;;;;;11.60;2.03;;;4.90;99.90;;;;;;5023099;28;20223;-54
2024/02/07 06:11:31;;;;;;;11.97;2.10;;;4.80;99.90;;;;;;5028058;28;20223;-52
2024/02/07 06:13:58;;;;;;;8.17;2.77;;;4.80;99.90;;;;;;5008215;28;20748;-50
2024/02/07 06:16:25;;;;;;;12.73;2.23;;;4.80;99.90;;;;;;5029742;28;20639;-53
2024/02/07 06:18:52;;;;;;;16.83;2.53;;;4.80;99.90;;;;;;5026551;28;20298;-55
2024/02/07 06:21:19;;;;;;;17.37;2.53;;;4.80;99.90;;;;;;5009244;28;20260;-52
2024/02/07 06:23:48;;;;;;;7.47;1.83;;;4.70;99.90;;;;;;5038208;28;20215;-54
2024/02/07 06:26:15;;;;;;;13.07;2.00;;;4.70;99.90;;;;;;5029629;28;20206;-53
2024/02/07 06:28:42;;;;;;;16.03;2.03;;;4.70;99.90;;;;;;5027286;28;20681;-54
2024/02/07 06:31:08;;;;;;;12.43;2.43;;;4.70;99.90;;;;;;5016877;28;20257;-52
2024/02/07 06:33:35;;;;;;;8.80;2.43;;;4.70;99.90;;;;;;5028002;28;20590;-51
2024/02/07 06:36:02;;;;;;;7.53;2.10;;;4.60;99.90;;;;;;5007482;28;20245;-55
2024/02/07 06:38:29;;;;;;;9.13;2.27;;;4.60;99.90;;;;;;5029011;28;20207;-54
2024/02/07 06:40:57;;;;;;;6.50;1.60;;;4.60;99.90;;;;;;5035671;28;20237;-53
2024/02/07 06:43:24;;;;;;;8.83;1.73;;;4.60;99.90;;;;;;5041422;28;20257;-53
2024/02/07 06:45:51;;;;;;;7.00;1.53;;;4.60;99.90;;;;;;5027751;28;20222;-54
2024/02/07 06:48:18;;;;;;;8.80;1.97;;;4.50;99.90;;;;;;5026895;28;21026;-51
2024/02/07 06:50:45;;;;;;;13.83;2.30;;;4.60;99.90;;;;;;5038488;28;20261;-53
2024/02/07 06:53:12;;;;;;;5.83;1.77;;;4.50;99.90;;;;;;5016065;28;20254;-53
2024/02/07 06:55:39;;;;;;;13.87;1.63;;;4.50;99.90;;;;;;5038952;28;20269;-54
2024/02/07 06:58:07;;;;;;;9.67;1.80;;;4.50;99.90;;;;;;5041687;28;20195;-51
2024/02/07 07:00:34;;;;;;;8.23;2.53;;;4.50;99.90;;;;;;5030328;28;20677;-53
2024/02/07 07:03:01;;;;;;;12.23;2.23;;;4.50;99.90;;;;;;5015579;28;20256;-51
2024/02/07 07:05:28;;;;;;;12.27;2.70;;;4.40;99.90;;;;;;5032746;28;20246;-55
2024/02/07 07:07:55;;;;;;;9.53;2.43;;;4.40;99.90;;;;;;5013189;28;20305;-55
2024/02/07 07:10:22;;;;;;;9.40;1.63;;;4.40;99.90;;;;;;5030962;28;20215;-54
2024/02/07 07:12:49;;;;;;;7.97;1.53;;;4.40;99.90;;;;;;5042397;28;20771;-54
2024/02/07 07:15:17;;;;;;;12.10;2.50;;;4.40;99.90;;;;;;5039032;28;20257;-55
2024/02/07 07:17:44;;;;;;;9.67;1.67;;;4.30;99.90;;;;;;5024506;28;20678;-54
2024/02/07 07:20:11;;;;;;;11.13;2.33;;;4.30;99.90;;;;;;5036266;28;20687;-56
2024/02/07 07:22:38;;;;;;;11.53;1.60;;;4.30;99.90;;;;;;5004907;28;20284;-54
2024/02/07 07:25:06;;;;;;;9.23;1.67;;;4.30;99.90;;;;;;5026200;28;20286;-53
2024/02/07 07:27:33;;;;;;;9.03;1.30;;;4.30;99.90;;;;;;5040797;28;20288;-55
2024/02/07 07:30:01;;;;;;;8.37;1.80;;;4.30;99.90;;;;;;5030556;28;20220;-54
2024/02/07 07:32:29;;;;;;;5.47;1.73;;;4.30;99.90;;;;;;5032407;28;20286;-53
2024/02/07 07:34:56;;;;;;;12.57;2.33;;;4.30;99.90;;;;;;5019682;28;20948;-54
2024/02/07 07:37:22;;;;;;;10.03;2.13;;;4.30;99.90;;;;;;5016724;28;20208;-52
2024/02/07 07:39:49;;;;;;;8.90;1.90;;;4.30;99.90;;;;;;5004525;28;20392;-53
2024/02/07 07:42:16;;;;;;;10.80;2.13;;;4.30;99.90;;;;;;5029950;28;20230;-52
2024/02/07 07:44:43;;;;;;;12.00;2.47;;;4.30;99.90;;;;;;5029004;28;20199;-53
2024/02/07 07:47:10;;;;;;;8.33;2.67;;;4.30;99.90;;;;;;5029498;28;20232;-51
2024/02/07 07:49:38;;;;;;;13.03;3.40;;;4.30;99.90;;;;;;5021869;28;20273;-53
2024/02/07 07:52:05;;;;;;;15.93;4.27;;;4.30;99.90;;;;;;5032559;28;20281;-53
2024/02/07 07:54:32;;;;;;;16.17;2.97;;;4.30;99.90;;;;;;5007018;28;20222;-54
2024/02/07 07:57:02;;;;;;;6.40;1.73;;;4.30;99.90;;;;;;5031798;28;20662;-53
2024/02/07 07:59:29;;;;;;;9.47;1.50;;;4.30;99.90;;;;;;5039638;28;20195;-55
2024/02/07 08:01:58;;;;;;;7.70;1.93;;;4.40;99.90;;;;;;5039534;28;20924;-55
2024/02/07 08:04:25;;;;;;;11.80;2.30;;;4.40;99.90;;;;;;5013436;28;20242;-53
2024/02/07 08:06:54;;;;;;;8.40;1.67;;;4.40;99.90;;;;;;5030808;28;20214;-55
2024/02/07 08:09:21;;;;;;;9.37;1.80;;;4.40;99.90;;;;;;5013888;28;20294;-55
2024/02/07 08:11:48;;;;;;;7.37;1.80;;;4.40;99.90;;;;;;5024625;28;20715;-52
2024/02/07 08:14:15;;;;;;;6.30;1.67;;;4.50;99.90;;;;;;5040732;28;20304;-55
2024/02/07 08:16:43;;;;;;;10.43;1.83;;;4.50;99.90;;;;;;5020125;28;20200;-53
2024/02/07 08:19:13;;;;;;;11.13;2.00;;;4.50;99.90;;;;;;5028543;28;20982;-54
2024/02/07 08:21:40;;;;;;;11.73;2.30;;;4.50;99.90;;;;;;5026662;28;20264;-52
2024/02/07 08:24:08;;;;;;;10.43;2.07;;;4.50;99.90;;;;;;5032984;28;20227;-55
2024/02/07 08:26:35;;;;;;;10.23;1.70;;;4.60;99.90;;;;;;4999844;28;20207;-51
2024/02/07 08:29:02;;;;;;;9.73;2.00;;;4.60;99.90;;;;;;5015514;28;20630;-54
2024/02/07 08:31:29;;;;;;;7.80;1.73;;;4.70;99.90;;;;;;5034747;28;20893;-52
2024/02/07 08:33:55;;;;;;;9.97;1.40;;;4.70;99.90;;;;;;5030120;28;20223;-52
2024/02/07 08:36:22;;;;;;;6.30;1.40;;;4.70;99.90;;;;;;5032465;28;20218;-55
2024/02/07 08:38:49;;;;;;;10.30;1.93;;;4.70;99.90;;;;;;5020228;28;21706;-54
2024/02/07 08:41:18;;;;;;;11.57;2.70;;;4.80;99.90;;;;;;4996101;28;20224;-54
2024/02/07 08:43:45;;;;;;;7.10;1.67;;;4.80;99.90;;;;;;5024734;28;22630;-54
2024/02/07 08:46:12;;;;;;;8.07;2.03;;;4.90;99.90;;;;;;5031978;28;20193;-54
2024/02/07 08:48:39;;;;;;;9.00;1.77;;;4.90;99.90;;;;;;5034563;28;20743;-54
2024/02/07 08:51:06;;;;;;;4.70;1.23;;;5.00;99.90;;;;;;5021729;28;20242;-53
2024/02/07 08:53:32;;;;;;;10.37;1.80;;;5.10;99.90;;;;;;5020707;28;20857;-54
2024/02/07 08:55:59;;;;;;;4.30;1.17;;;5.20;99.90;;;;;;5005416;28;20712;-55
2024/02/07 08:58:27;;;;;;;12.13;2.47;;;5.20;99.90;;;;;;5031475;28;20210;-54
2024/02/07 09:00:54;;;;;;;9.60;2.90;;;5.30;99.90;;;;;;5038876;28;20287;-54
2024/02/07 09:03:21;;;;;;;4.87;1.97;;;5.30;99.90;;;;;;5036606;28;20767;-54
2024/02/07 09:05:47;;;;;;;9.10;2.10;;;5.20;99.90;;;;;;5015569;28;20211;-54
2024/02/07 09:08:15;;;;;;;10.53;2.60;;;5.20;99.90;;;;;;5015988;28;20207;-52
2024/02/07 09:10:44;;;;;;;8.13;1.67;;;5.10;99.90;;;;;;5014269;28;20224;-53
2024/02/07 09:13:10;;;;;;;12.33;1.97;;;5.00;99.90;;;;;;4999309;28;20219;-54
2024/02/07 09:15:39;;;;;;;6.13;1.60;;;5.00;99.90;;;;;;5031202;28;20807;-54
2024/02/07 09:18:06;;;;;;;9.57;2.53;;;5.00;99.90;;;;;;5035413;28;20229;-56
2024/02/07 09:20:32;;;;;;;8.00;1.80;;;5.00;99.90;;;;;;5031970;28;20199;-54
2024/02/07 09:22:59;;;;;;;10.37;1.80;;;5.00;99.90;;;;;;5026749;28;20223;-50
2024/02/07 09:25:26;;;;;;;7.17;1.70;;;4.90;99.90;;;;;;5012596;28;20247;-53
2024/02/07 09:27:53;;;;;;;7.10;1.60;;;4.90;99.90;;;;;;5011561;28;20223;-52
2024/02/07 09:30:20;;;;;;;10.53;2.10;;;5.00;99.90;;;;;;5037496;28;20233;-50
2024/02/07 09:32:48;;;;;;;12.43;2.60;;;5.10;99.90;;;;;;5036490;28;20326;-54
2024/02/07 09:35:15;;;;;;;8.87;2.53;;;5.20;99.90;;;;;;5035669;28;20203;-51
2024/02/07 09:37:42;;;;;;;13.17;2.17;;;5.30;99.90;;;;;;5016966;28;20291;-53
2024/02/07 09:40:10;;;;;;;11.13;2.10;;;5.30;99.90;;;;;;5020196;28;20204;-53
2024/02/07 09:42:39;;;;;;;6.53;2.37;;;5.30;99.90;;;;;;4999688;28;20227;-54
2024/02/07 09:45:07;;;;;;;10.13;2.23;;;5.30;99.90;;;;;;5033383;28;20285;-52
2024/02/07 09:47:46;;;;;;;9.47;1.60;;;5.30;99.90;;;;;;5031648;28;20235;-52
2024/02/07 09:50:16;;;;;;;8.23;2.00;;;5.30;99.90;;;;;;5033063;28;20223;-52
2024/02/07 09:52:44;;;;;;;9.97;1.67;;;5.40;99.90;;;;;;5022648;28;20223;-52
2024/02/07 09:55:11;;;;;;;10.50;1.80;;;5.30;99.90;;;;;;5031392;28;20214;-53
2024/02/07 09:57:39;;;;;;;7.80;1.50;;;5.30;99.90;;;;;;4995553;28;20215;-52
2024/02/07 10:00:08;;;;;;;6.43;1.60;;;5.30;99.90;;;;;;5033479;28;20202;-51
2024/02/07 10:02:39;;;;;;;8.37;1.90;;;5.30;99.90;;;;;;5033855;28;20937;-52
2024/02/07 10:05:09;;;;;;;8.73;2.10;;;5.30;99.90;;;;;;5039186;28;20223;-51
2024/02/07 10:07:38;;;;;;;11.40;2.20;;;5.30;99.90;;;;;;5006858;28;20220;-55
2024/02/07 10:10:08;;;;;;;7.73;1.77;;;5.30;99.90;;;;;;5026028;28;20207;-50
2024/02/07 10:12:36;;;;;;;9.67;1.33;;;5.30;99.90;;;;;;5005663;28;20245;-51
2024/02/07 10:15:03;;;;;;;11.23;1.47;;;5.30;99.90;;;;;;5032488;28;20226;-51
2024/02/07 10:17:30;;;;;;;7.23;1.97;;;5.30;99.90;;;;;;5035400;28;20191;-50
2024/02/07 10:19:57;;;;;;;12.40;1.60;;;5.30;99.90;;;;;;5036898;28;21112;-53
2024/02/07 10:22:24;;;;;;;6.50;1.60;;;5.30;99.90;;;;;;5038771;28;20249;-53
2024/02/07 10:24:53;;;;;;;6.33;1.20;;;5.30;99.90;;;;;;5024821;28;20207;-50
2024/02/07 10:27:20;;;;;;;8.23;1.40;;;5.30;99.90;;;;;;5023359;28;20559;-53
2024/02/07 10:29:47;;;;;;;6.27;1.20;;;5.30;99.90;;;;;;5027054;28;20226;-51
2024/02/07 10:32:17;;;;;;;5.10;1.60;;;5.30;99.90;;;;;;5037938;28;20281;-53
2024/02/07 10:34:50;;;;;;;7.20;1.60;;;5.30;99.90;;;;;;5034435;28;20269;-52
2024/02/07 10:37:18;;;;;;;8.90;1.30;;;5.30;99.90;;;;;;5035805;28;20312;-52
2024/02/07 10:39:45;;;;;;;3.70;1.33;;;5.30;99.90;;;;;;5027377;28;20855;-54
2024/02/07 10:42:14;;;;;;;6.13;1.33;;;5.30;99.90;;;;;;5031391;28;20188;-53
2024/02/07 10:44:42;;;;;;;8.83;2.03;;;5.40;99.90;;;;;;5023840;28;20337;-53
2024/02/07 10:47:08;;;;;;;5.33;1.30;;;5.40;99.90;;;;;;5035701;28;20200;-53
2024/02/07 10:49:36;;;;;;;5.50;1.33;;;5.50;99.90;;;;;;5036389;28;20187;-54
2024/02/07 10:52:03;;;;;;;3.57;1.47;;;5.60;99.90;;;;;;5035937;28;20277;-53
2024/02/07 10:54:30;;;;;;;3.53;1.00;;;5.50;99.90;;;;;;5029645;28;20362;-55
2024/02/07 10:56:59;;;;;;;7.87;1.40;;;5.60;99.90;;;;;;5033848;28;20570;-54
2024/02/07 10:59:27;;;;;;;10.27;1.53;;;5.60;99.90;;;;;;5005855;28;20288;-53
2024/02/07 11:01:54;;;;;;;10.07;1.50;;;5.60;99.90;;;;;;5041709;28;20257;-55
2024/02/07 11:04:22;;;;;;;3.77;1.40;;;5.60;99.90;;;;;;5032383;28;20215;-54
2024/02/07 11:06:50;;;;;;;8.23;1.60;;;5.50;99.90;;;;;;5031107;28;20597;-54
2024/02/07 11:09:17;;;;;;;7.47;1.30;;;5.50;99.90;;;;;;5022912;28;20630;-49
2024/02/07 11:11:44;;;;;;;5.57;1.07;;;5.50;99.90;;;;;;5030944;28;20847;-55
2024/02/07 11:14:12;;;;;;;4.10;1.53;;;5.50;99.90;;;;;;5008436;28;20297;-53
2024/02/07 11:16:40;;;;;;;6.73;1.30;;;5.50;99.90;;;;;;5038972;28;20199;-55
2024/02/07 11:19:08;;;;;;;11.13;1.97;;;5.50;99.90;;;;;;5039478;28;20298;-49
2024/02/07 11:21:38;;;;;;;4.00;1.37;;;5.60;99.90;;;;;;5035543;28;20203;-51
2024/02/07 11:24:07;;;;;;;11.10;2.10;;;5.60;99.90;;;;;;5020854;28;20227;-53
2024/02/07 11:26:35;;;;;;;6.30;1.17;;;5.70;99.90;;;;;;5018543;28;20282;-51
2024/02/07 11:29:03;;;;;;;5.13;1.63;;;5.70;99.90;;;;;;5036303;28;20210;-53
2024/02/07 11:31:30;;;;;;;10.10;1.80;;;5.70;99.90;;;;;;5000894;28;20221;-51
2024/02/07 11:33:59;;;;;;;8.77;1.70;;;5.70;99.90;;;;;;5038257;28;20571;-52
2024/02/07 11:36:29;;;;;;;3.77;1.17;;;5.70;99.90;;;;;;5036371;28;20202;-53
2024/02/07 11:38:56;;;;;;;6.07;1.43;;;5.70;99.90;;;;;;5034740;28;20231;-51
2024/02/07 11:41:24;;;;;;;5.70;1.40;;;5.70;99.90;;;;;;5017092;28;20302;-53
2024/02/07 11:43:53;;;;;;;7.17;1.57;;;5.70;99.90;;;;;;5035473;28;20219;-52
2024/02/07 11:46:22;;;;;;;8.00;1.20;;;5.80;99.90;;;;;;5008400;28;20207;-53
2024/02/07 11:48:52;;;;;;;5.60;1.57;;;5.70;99.90;;;;;;5035339;28;20207;-50
2024/02/07 11:51:22;;;;;;;5.20;1.40;;;5.70;99.90;;;;;;5037762;28;20204;-55
2024/02/07 11:53:49;;;;;;;9.53;1.13;;;5.70;99.90;;;;;;5039565;28;20741;-54
2024/02/07 11:56:21;;;;;;;5.10;1.27;;;5.80;99.90;;;;;;5020033;28;20227;-53
2024/02/07 11:58:52;;;;;;;12.93;1.63;;;5.80;99.90;;;;;;5039007;28;20203;-53
2024/02/07 12:01:19;;;;;;;9.27;1.50;;;5.80;99.90;;;;;;5013211;28;20200;-54
2024/02/07 12:03:46;;;;;;;6.47;1.73;;;5.90;99.90;;;;;;5035759;28;20292;-51
2024/02/07 12:06:13;;;;;;;3.10;0.60;;;5.80;99.90;;;;;;5039544;28;20195;-54
2024/02/07 12:08:42;;;;;;;5.37;1.73;;;5.80;99.90;;;;;;5027584;28;20192;-54
2024/02/07 12:11:09;;;;;;;11.73;1.40;;;5.80;99.90;;;;;;5029240;28;20710;-53
2024/02/07 12:13:36;;;;;;;6.53;1.20;;;5.80;99.90;;;;;;5025354;28;20965;-51
2024/02/07 12:16:05;;;;;;;4.83;1.30;;;5.70;99.90;;;;;;5013157;28;20207;-54
2024/02/07 12:18:32;;;;;;;2.50;1.10;;;5.70;99.90;;;;;;5032119;28;20275;-52
2024/02/07 12:21:01;;;;;;;8.17;1.93;;;5.70;99.90;;;;;;5038887;28;20195;-56
2024/02/07 12:23:29;;;;;;;2.80;1.23;;;5.70;99.90;;;;;;5034714;28;20217;-53
2024/02/07 12:25:58;;;;;;;8.67;1.33;;;5.70;99.90;;;;;;5031435;28;20227;-53
2024/02/07 12:28:25;;;;;;;7.37;1.50;;;5.80;99.90;;;;;;5027382;28;20199;-54
2024/02/07 12:30:54;;;;;;;6.30;1.60;;;5.80;99.90;;;;;;5010838;28;20231;-53
2024/02/07 12:33:20;;;;;;;5.13;1.20;;;5.80;99.90;;;;;;5033178;28;20681;-51
2024/02/07 12:35:49;;;;;;;6.37;1.07;;;5.70;99.90;;;;;;5038852;28;20200;-50
2024/02/07 12:38:16;;;;;;;6.47;1.20;;;5.70;99.90;;;;;;5037636;28;20257;-51
2024/02/07 12:40:43;;;;;;;8.90;1.70;;;5.70;99.90;;;;;;5028421;28;20352;-53
2024/02/07 12:43:11;;;;;;;7.67;1.50;;;5.80;99.90;;;;;;5028437;28;20272;-53
2024/02/07 12:45:38;;;;;;;4.83;1.50;;;5.70;99.90;;;;;;5029610;28;20199;-52
2024/02/07 12:48:06;;;;;;;5.83;1.40;;;5.80;99.90;;;;;;5011824;28;20215;-54
2024/02/07 12:50:33;;;;;;;8.90;1.13;;;5.80;99.90;;;;;;5025779;28;20277;-54
2024/02/07 12:52:59;;;;;;;4.90;0.93;;;5.80;99.90;;;;;;5027278;28;20243;-54
2024/02/07 12:55:26;;;;;;;7.17;1.43;;;5.80;99.90;;;;;;5038732;28;20265;-51
2024/02/07 12:58:01;;;;;;;8.87;1.40;;;5.80;99.90;;;;;;5016964;28;20262;-53
2024/02/07 13:00:29;;;;;;;8.90;1.20;;;5.80;99.90;;;;;;5035085;28;20256;-54
2024/02/07 13:02:57;;;;;;;3.40;0.90;;;5.70;99.90;;;;;;5015900;28;20230;-53
2024/02/07 13:05:24;;;;;;;8.37;1.73;;;5.60;99.90;;;;;;5033423;28;20200;-54
2024/02/07 13:07:52;;;;;;;3.50;1.00;;;5.60;99.90;;;;;;5024915;28;20211;-55
2024/02/07 13:10:20;;;;;;;5.60;1.10;;;5.60;99.90;;;;;;5030402;28;20207;-56
2024/02/07 13:12:46;;;;;;;4.77;1.27;;;5.70;99.90;;;;;;5034179;28;20323;-56
2024/02/07 13:15:17;;;;;;;3.43;1.13;;;5.60;99.90;;;;;;5019826;28;20204;-56
2024/02/07 13:17:46;;;;;;;7.00;1.50;;;5.60;99.90;;;;;;5020438;28;20226;-55
2024/02/07 13:20:13;;;;;;;4.40;1.40;;;5.60;99.90;;;;;;5027569;28;20195;-52
2024/02/07 13:22:40;;;;;;;6.03;1.10;;;5.50;99.90;;;;;;5036898;28;20682;-54
2024/02/07 13:25:09;;;;;;;6.20;1.30;;;5.50;99.90;;;;;;5024927;28;20299;-56
2024/02/07 13:27:36;;;;;;;4.53;0.87;;;5.40;99.90;;;;;;5037272;28;20195;-55
2024/02/07 13:30:04;;;;;;;4.27;1.13;;;5.40;99.90;;;;;;5023842;28;20290;-54
2024/02/07 13:32:31;;;;;;;7.23;1.00;;;5.40;99.90;;;;;;5031680;28;20215;-54
2024/02/07 13:34:59;;;;;;;9.43;1.13;;;5.30;99.90;;;;;;5010038;28;20219;-56
2024/02/07 13:37:27;;;;;;;3.27;1.37;;;5.30;99.90;;;;;;5035938;28;20201;-54
2024/02/07 13:39:54;;;;;;;5.70;1.20;;;5.30;99.90;;;;;;5029991;28;20269;-56
2024/02/07 13:42:21;;;;;;;5.77;1.13;;;5.40;99.90;;;;;;5032331;28;21764;-55
2024/02/07 13:44:49;;;;;;;3.87;0.90;;;5.40;99.90;;;;;;5030853;28;20224;-54
2024/02/07 13:47:16;;;;;;;6.13;1.37;;;5.40;99.90;;;;;;5030308;28;20187;-54
2024/02/07 13:49:43;;;;;;;5.07;1.00;;;5.30;99.90;;;;;;5013747;28;20313;-50
2024/02/07 13:52:11;;;;;;;7.00;1.30;;;5.30;99.90;;;;;;5031026;28;20215;-51
2024/02/07 13:54:38;;;;;;;5.90;1.43;;;5.30;99.90;;;;;;5030061;28;20249;-51
2024/02/07 13:57:05;;;;;;;4.73;1.77;;;5.30;99.90;;;;;;5019029;28;20250;-53
2024/02/07 13:59:32;;;;;;;7.63;2.03;;;5.30;99.90;;;;;;5030990;28;20210;-54
2024/02/07 14:02:01;;;;;;;6.57;1.53;;;5.20;99.90;;;;;;5024494;28;20245;-54
2024/02/07 14:04:27;;;;;;;5.83;1.47;;;5.20;99.90;;;;;;5034190;28;20289;-52